createdAt,value
2023-01-28T00:01:15.369Z,-1.07
2023-01-28T00:03:45.138Z,-1.07
2023-01-28T00:06:16.920Z,-1.08
2023-01-28T00:08:46.545Z,-1.09
2023-01-28T00:11:17.330Z,-1.08
2023-01-28T00:13:47.367Z,-1.09
2023-01-28T00:16:16.768Z,-1.10
2023-01-28T00:18:46.297Z,-1.11
2023-01-28T00:21:16.075Z,-1.10
2023-01-28T00:23:49.335Z,-1.08
2023-01-28T00:26:18.855Z,-1.07
2023-01-28T00:28:49.718Z,-1.02
2023-01-28T00:31:22.830Z,-0.99
2023-01-28T00:33:52.618Z,-0.95
2023-01-28T00:36:24.663Z,-0.92
2023-01-28T00:38:58.502Z,-0.89
2023-01-28T00:41:29.542Z,-0.85
2023-01-28T00:44:01.495Z,-0.81
2023-01-28T00:46:33.000Z,-0.80
2023-01-28T00:49:02.291Z,-0.78
2023-01-28T00:51:34.532Z,-0.77
2023-01-28T00:54:03.788Z,-0.76
2023-01-28T00:56:33.045Z,-0.76
2023-01-28T00:59:02.464Z,-0.77
2023-01-28T01:01:32.238Z,-0.77
2023-01-28T01:04:04.485Z,-0.78
2023-01-28T01:06:36.054Z,-0.77
2023-01-28T01:09:08.599Z,-0.77
2023-01-28T01:11:38.710Z,-0.78
2023-01-28T01:14:09.996Z,-0.80
2023-01-28T01:16:39.411Z,-0.80
2023-01-28T01:19:09.730Z,-0.80
2023-01-28T01:21:38.996Z,-0.80
2023-01-28T01:24:08.526Z,-0.80
2023-01-28T01:26:40.926Z,-0.79
2023-01-28T01:29:10.662Z,-0.77
2023-01-28T01:31:39.888Z,-0.77
2023-01-28T01:34:09.927Z,-0.78
2023-01-28T01:36:39.312Z,-0.81
2023-01-28T01:39:08.514Z,-0.84
2023-01-28T01:41:39.299Z,-0.84
2023-01-28T01:45:07.328Z,-0.83
2023-01-28T01:47:57.965Z,-0.85
2023-01-28T01:50:35.699Z,-0.86
2023-01-28T01:53:15.103Z,-0.85
2023-01-28T01:55:47.575Z,-0.85
2023-01-28T01:58:19.764Z,-0.88
2023-01-28T02:00:50.087Z,-0.87
2023-01-28T02:03:22.319Z,-0.86
2023-01-28T02:05:51.806Z,-0.88
2023-01-28T02:08:22.217Z,-0.87
2023-01-28T02:10:57.537Z,-0.90
2023-01-28T02:13:29.394Z,-0.93
2023-01-28T02:15:58.977Z,-0.94
2023-01-28T02:18:28.617Z,-0.94
2023-01-28T02:21:16.170Z,-0.97
2023-01-28T02:23:45.892Z,-1.00
2023-01-28T02:26:26.184Z,-1.01
2023-01-28T02:29:21.600Z,-1.01
2023-01-28T02:32:06.304Z,-1.03
2023-01-28T02:34:50.164Z,-1.08
2023-01-28T02:37:25.267Z,-1.11
2023-01-28T02:40:04.545Z,-1.11
2023-01-28T02:42:35.835Z,-1.14
2023-01-28T02:45:53.131Z,-1.15
2023-01-28T02:48:22.975Z,-1.15
2023-01-28T02:51:15.379Z,-1.15
2023-01-28T02:53:48.059Z,-1.15
2023-01-28T02:56:34.931Z,-1.16
2023-01-28T02:59:34.467Z,-1.19
2023-01-28T03:02:23.676Z,-1.18
2023-01-28T03:05:04.438Z,-1.19
2023-01-28T03:07:36.438Z,-1.20
2023-01-28T03:10:08.399Z,-1.18
2023-01-28T03:12:57.021Z,-1.20
2023-01-28T03:15:46.998Z,-1.27
2023-01-28T03:18:39.781Z,-1.30
2023-01-28T03:21:39.678Z,-1.33
2023-01-28T03:24:33.704Z,-1.36
2023-01-28T03:27:37.486Z,-1.36
2023-01-28T03:30:55.910Z,-1.40
2023-01-28T03:33:51.779Z,-1.42
2023-01-28T03:36:39.527Z,-1.44
2023-01-28T03:39:09.534Z,-1.46
2023-01-28T03:41:41.094Z,-1.45
2023-01-28T03:44:28.531Z,-1.46
2023-01-28T03:47:00.222Z,-1.47
2023-01-28T03:49:34.817Z,-1.48
2023-01-28T03:52:04.103Z,-1.48
2023-01-28T03:54:33.450Z,-1.48
2023-01-28T03:57:03.066Z,-1.47
2023-01-28T03:59:33.620Z,-1.47
2023-01-28T04:02:06.896Z,-1.49
2023-01-28T04:04:37.178Z,-1.49
2023-01-28T04:07:11.142Z,-1.51
2023-01-28T04:10:02.413Z,-1.55
2023-01-28T04:12:54.885Z,-1.59
2023-01-28T04:15:25.040Z,-1.61
2023-01-28T04:17:56.313Z,-1.66
2023-01-28T04:20:32.385Z,-1.69
2023-01-28T04:23:02.852Z,-1.71
2023-01-28T04:25:33.336Z,-1.77
2023-01-28T04:28:04.159Z,-1.80
2023-01-28T04:30:33.761Z,-1.83
2023-01-28T04:33:17.845Z,-1.85
2023-01-28T04:36:17.371Z,-1.89
2023-01-28T04:38:58.112Z,-1.91
2023-01-28T04:41:50.465Z,-1.92
2023-01-28T04:44:25.941Z,-1.89
2023-01-28T04:47:05.788Z,-1.88
2023-01-28T04:49:52.351Z,-1.90
2023-01-28T04:52:30.142Z,-1.90
2023-01-28T04:55:18.822Z,-1.91
2023-01-28T04:57:53.219Z,-1.91
2023-01-28T05:00:23.677Z,-1.90
2023-01-28T05:02:54.540Z,-1.89
2023-01-28T05:05:25.245Z,-1.87
2023-01-28T05:07:59.316Z,-1.85
2023-01-28T05:10:29.039Z,-1.86
2023-01-28T05:12:58.606Z,-1.86
2023-01-28T05:15:29.651Z,-1.85
2023-01-28T05:18:00.688Z,-1.85
2023-01-28T05:20:35.848Z,-1.85
2023-01-28T05:23:05.974Z,-1.85
2023-01-28T05:25:46.448Z,-1.84
2023-01-28T05:28:17.178Z,-1.84
2023-01-28T05:30:46.754Z,-1.84
2023-01-28T05:33:16.010Z,-1.84
2023-01-28T05:35:45.167Z,-1.83
2023-01-28T05:38:15.570Z,-1.81
2023-01-28T05:40:45.899Z,-1.81
2023-01-28T05:43:15.920Z,-1.82
2023-01-28T05:45:59.336Z,-1.82
2023-01-28T05:48:52.283Z,-1.79
2023-01-28T05:51:40.553Z,-1.79
2023-01-28T05:54:12.944Z,-1.79
2023-01-28T05:56:42.407Z,-1.81
2023-01-28T05:59:12.354Z,-1.80
2023-01-28T06:01:44.198Z,-1.81
2023-01-28T06:04:14.115Z,-1.82
2023-01-28T06:06:43.259Z,-1.80
2023-01-28T06:09:16.213Z,-1.80
2023-01-28T06:11:47.093Z,-1.78
2023-01-28T06:14:17.278Z,-1.77
2023-01-28T06:17:05.727Z,-1.76
2023-01-28T06:19:44.598Z,-1.76
2023-01-28T06:22:14.283Z,-1.72
2023-01-28T06:24:44.048Z,-1.70
2023-01-28T06:27:13.875Z,-1.69
2023-01-28T06:29:44.028Z,-1.65
2023-01-28T06:32:14.387Z,-1.64
2023-01-28T06:34:44.573Z,-1.63
2023-01-28T06:37:15.541Z,-1.61
2023-01-28T06:39:45.564Z,-1.58
2023-01-28T06:42:15.319Z,-1.53
2023-01-28T06:44:45.333Z,-1.49
2023-01-28T06:47:16.417Z,-1.44
2023-01-28T06:49:46.722Z,-1.41
2023-01-28T06:52:17.085Z,-1.37
2023-01-28T06:54:46.482Z,-1.39
2023-01-28T06:57:16.156Z,-1.39
2023-01-28T06:59:46.728Z,-1.43
2023-01-28T07:02:16.495Z,-1.43
2023-01-28T07:04:46.089Z,-1.44
2023-01-28T07:07:16.225Z,-1.44
2023-01-28T07:09:46.262Z,-1.43
2023-01-28T07:12:16.221Z,-1.43
2023-01-28T07:14:45.567Z,-1.42
2023-01-28T07:17:19.388Z,-1.41
2023-01-28T07:19:49.430Z,-1.37
2023-01-28T07:22:19.365Z,-1.36
2023-01-28T07:24:50.572Z,-1.35
2023-01-28T07:27:20.972Z,-1.33
2023-01-28T07:29:50.392Z,-1.30
2023-01-28T07:32:20.150Z,-1.27
2023-01-28T07:34:49.860Z,-1.25
2023-01-28T07:37:19.626Z,-1.26
2023-01-28T07:39:49.290Z,-1.29
2023-01-28T07:42:18.623Z,-1.28
2023-01-28T07:44:50.473Z,-1.28
2023-01-28T07:47:20.604Z,-1.28
2023-01-28T07:49:50.038Z,-1.27
2023-01-28T07:52:22.464Z,-1.25
2023-01-28T07:54:52.968Z,-1.20
2023-01-28T07:57:27.668Z,-1.20
2023-01-28T07:59:58.696Z,-1.19
2023-01-28T08:02:30.192Z,-1.21
2023-01-28T08:05:02.754Z,-1.22
2023-01-28T08:07:32.970Z,-1.21
2023-01-28T08:10:03.439Z,-1.20
2023-01-28T08:12:34.812Z,-1.16
2023-01-28T08:15:06.487Z,-1.11
2023-01-28T08:17:38.938Z,-1.09
2023-01-28T08:20:10.483Z,-1.07
2023-01-28T08:22:41.900Z,-1.01
2023-01-28T08:25:11.850Z,-0.98
2023-01-28T08:27:41.700Z,-0.93
2023-01-28T08:30:13.440Z,-0.84
2023-01-28T08:32:44.077Z,-0.76
2023-01-28T08:35:15.594Z,-0.75
2023-01-28T08:37:45.779Z,-0.68
2023-01-28T08:40:17.900Z,-0.61
2023-01-28T08:42:49.819Z,-0.54
2023-01-28T08:45:20.248Z,-0.56
2023-01-28T08:48:02.163Z,-0.57
2023-01-28T08:50:39.234Z,-0.57
2023-01-28T08:53:16.173Z,-0.53
2023-01-28T08:55:47.360Z,-0.47
2023-01-28T08:58:18.311Z,-0.45
2023-01-28T09:00:49.244Z,-0.43
2023-01-28T09:03:20.658Z,-0.44
2023-01-28T09:05:54.429Z,-0.44
2023-01-28T09:08:25.354Z,-0.42
2023-01-28T09:10:58.952Z,-0.42
2023-01-28T09:13:29.123Z,-0.38
2023-01-28T09:15:58.778Z,-0.31
2023-01-28T09:18:29.301Z,-0.26
2023-01-28T09:20:59.724Z,-0.22
2023-01-28T09:23:30.892Z,-0.19
2023-01-28T09:26:02.186Z,-0.16
2023-01-28T09:28:33.404Z,-0.14
2023-01-28T09:31:07.745Z,-0.13
2023-01-28T09:33:38.828Z,-0.13
2023-01-28T09:36:09.465Z,-0.11
2023-01-28T09:38:39.117Z,-0.08
2023-01-28T09:41:58.230Z,-0.04
2023-01-28T09:44:40.825Z,0.01
2023-01-28T09:47:16.686Z,0.05
2023-01-28T09:49:50.693Z,0.10
2023-01-28T09:52:21.616Z,0.12
2023-01-28T09:54:57.208Z,0.14
2023-01-28T09:57:29.017Z,0.18
2023-01-28T09:59:58.506Z,0.18
2023-01-28T10:02:57.646Z,0.17
2023-01-28T10:05:58.747Z,0.14
2023-01-28T10:08:28.358Z,0.15
2023-01-28T10:11:03.831Z,0.18
2023-01-28T10:13:49.301Z,0.24
2023-01-28T10:16:47.578Z,0.30
2023-01-28T10:19:29.187Z,0.38
2023-01-28T10:22:18.215Z,0.47
2023-01-28T10:24:53.414Z,0.56
2023-01-28T10:27:25.661Z,0.65
2023-01-28T10:29:55.857Z,0.68
2023-01-28T10:32:34.650Z,0.70
2023-01-28T10:35:04.254Z,0.71
2023-01-28T10:37:37.250Z,0.74
2023-01-28T10:40:17.557Z,0.74
2023-01-28T10:42:47.262Z,0.74
2023-01-28T10:45:30.741Z,0.76
2023-01-28T10:48:05.177Z,0.76
2023-01-28T10:50:39.055Z,0.75
2023-01-28T10:53:09.145Z,0.74
2023-01-28T10:55:52.211Z,0.71
2023-01-28T10:58:24.986Z,0.69
2023-01-28T11:01:00.726Z,0.65
2023-01-28T11:03:31.756Z,0.65
2023-01-28T11:06:02.137Z,0.66
2023-01-28T11:08:32.086Z,0.65
2023-01-28T11:11:02.146Z,0.66
2023-01-28T11:13:31.762Z,0.68
2023-01-28T11:16:06.864Z,0.74
2023-01-28T11:18:41.523Z,0.80
2023-01-28T11:21:23.324Z,0.87
2023-01-28T11:24:01.584Z,0.93
2023-01-28T11:26:39.005Z,1.01
2023-01-28T11:29:30.504Z,1.05
2023-01-28T11:32:01.102Z,1.06
2023-01-28T11:34:34.099Z,1.05
2023-01-28T11:37:19.229Z,1.03
2023-01-28T11:39:48.873Z,0.98
2023-01-28T11:42:22.826Z,1.00
2023-01-28T11:44:53.737Z,0.97
2023-01-28T11:47:41.261Z,0.96
2023-01-28T11:50:58.502Z,0.96
2023-01-28T11:53:51.664Z,0.99
2023-01-28T11:56:33.684Z,0.96
2023-01-28T12:00:17.440Z,0.96
2023-01-28T12:03:13.361Z,0.97
2023-01-28T12:06:23.043Z,1.00
2023-01-28T12:09:11.567Z,1.03
2023-01-28T12:12:05.012Z,1.10
2023-01-28T12:14:44.291Z,1.17
2023-01-28T12:17:33.500Z,1.24
2023-01-28T12:20:32.077Z,1.30
2023-01-28T12:23:14.394Z,1.34
2023-01-28T12:26:02.125Z,1.38
2023-01-28T12:28:53.306Z,1.42
2023-01-28T12:31:40.067Z,1.40
2023-01-28T12:34:41.875Z,1.38
2023-01-28T12:37:14.081Z,1.39
2023-01-28T12:40:06.429Z,1.42
2023-01-28T12:42:38.056Z,1.38
2023-01-28T12:45:28.529Z,1.36
2023-01-28T12:48:35.673Z,1.35
2023-01-28T12:51:38.997Z,1.31
2023-01-28T12:54:12.656Z,1.28
2023-01-28T12:56:45.866Z,1.27
2023-01-28T12:59:21.695Z,1.24
2023-01-28T13:02:15.104Z,1.21
2023-01-28T13:04:55.299Z,1.23
2023-01-28T13:07:35.939Z,1.28
2023-01-28T13:10:33.146Z,1.24
2023-01-28T13:13:04.777Z,1.14
2023-01-28T13:15:37.424Z,1.09
2023-01-28T13:18:08.701Z,1.05
2023-01-28T13:20:48.714Z,1.01
2023-01-28T13:23:27.055Z,0.98
2023-01-28T13:25:57.607Z,0.95
2023-01-28T13:28:32.761Z,0.92
2023-01-28T13:31:04.646Z,0.89
2023-01-28T13:33:39.723Z,0.87
2023-01-28T13:36:23.619Z,0.84
2023-01-28T13:39:03.963Z,0.85
2023-01-28T13:41:45.733Z,0.81
2023-01-28T13:44:28.463Z,0.80
2023-01-28T13:47:09.662Z,0.78
2023-01-28T13:49:41.866Z,0.77
2023-01-28T13:52:11.936Z,0.75
2023-01-28T13:54:45.321Z,0.70
2023-01-28T13:57:33.605Z,0.67
2023-01-28T14:00:26.541Z,0.64
2023-01-28T14:03:20.494Z,0.60
2023-01-28T14:05:59.639Z,0.55
2023-01-28T14:09:06.894Z,0.50
2023-01-28T14:11:55.743Z,0.45
2023-01-28T14:14:47.959Z,0.40
2023-01-28T14:17:44.695Z,0.33
2023-01-28T14:20:31.576Z,0.30
2023-01-28T14:23:08.163Z,0.27
2023-01-28T14:26:15.889Z,0.25
2023-01-28T14:29:01.143Z,0.22
2023-01-28T14:31:37.792Z,0.20
2023-01-28T14:34:47.030Z,0.18
2023-01-28T14:37:22.001Z,0.16
2023-01-28T14:39:58.888Z,0.17
2023-01-28T14:42:33.635Z,0.18
2023-01-28T14:45:30.062Z,0.20
2023-01-28T14:48:21.482Z,0.18
2023-01-28T14:51:03.676Z,0.23
2023-01-28T14:53:54.437Z,0.24
2023-01-28T14:56:44.526Z,0.23
2023-01-28T14:59:20.158Z,0.22
2023-01-28T15:01:56.761Z,0.20
2023-01-28T15:04:28.169Z,0.17
2023-01-28T15:07:02.645Z,0.15
2023-01-28T15:09:33.687Z,0.13
2023-01-28T15:12:04.187Z,0.12
2023-01-28T15:14:35.694Z,0.12
2023-01-28T15:17:05.625Z,0.12
2023-01-28T15:19:36.455Z,0.12
2023-01-28T15:22:07.257Z,0.12
2023-01-28T15:24:37.111Z,0.08
2023-01-28T15:27:07.359Z,0.08
2023-01-28T15:29:38.179Z,0.08
2023-01-28T15:32:31.620Z,0.11
2023-01-28T15:35:02.280Z,0.13
2023-01-28T15:37:32.623Z,0.12
2023-01-28T15:40:07.422Z,0.11
2023-01-28T15:42:39.265Z,0.12
2023-01-28T15:45:18.813Z,0.12
2023-01-28T15:47:50.119Z,0.11
2023-01-28T15:50:27.161Z,0.11
2023-01-28T15:52:58.494Z,0.10
2023-01-28T15:55:39.307Z,0.12
2023-01-28T15:58:22.806Z,0.15
2023-01-28T16:00:55.461Z,0.14
2023-01-28T16:03:26.920Z,0.13
2023-01-28T16:06:10.514Z,0.11
2023-01-28T16:08:48.642Z,0.11
2023-01-28T16:11:23.884Z,0.10
2023-01-28T16:13:56.445Z,0.09
2023-01-28T16:16:31.623Z,0.09
2023-01-28T16:19:06.983Z,0.08
2023-01-28T16:21:40.980Z,0.08
2023-01-28T16:24:29.968Z,0.06
2023-01-28T16:27:04.853Z,0.04
2023-01-28T16:29:35.009Z,0.03
2023-01-28T16:32:05.872Z,0.03
2023-01-28T16:34:46.073Z,0.03
2023-01-28T16:37:17.003Z,0.04
2023-01-28T16:39:47.446Z,0.06
2023-01-28T16:42:18.214Z,0.05
2023-01-28T16:44:48.488Z,0.08
2023-01-28T16:47:21.852Z,0.08
2023-01-28T16:49:55.971Z,0.09
2023-01-28T16:52:27.090Z,0.10
2023-01-28T16:54:59.967Z,0.12
2023-01-28T16:57:42.053Z,0.11
2023-01-28T17:00:21.166Z,0.11
2023-01-28T17:02:53.670Z,0.13
2023-01-28T17:05:25.726Z,0.13
2023-01-28T17:08:02.756Z,0.13
2023-01-28T17:10:36.335Z,0.14
2023-01-28T17:13:09.067Z,0.15
2023-01-28T17:15:42.438Z,0.15
2023-01-28T17:18:18.752Z,0.14
2023-01-28T17:20:50.287Z,0.14
2023-01-28T17:23:25.137Z,0.15
2023-01-28T17:25:56.439Z,0.15
2023-01-28T17:28:28.664Z,0.15
2023-01-28T17:31:07.714Z,0.19
2023-01-28T17:33:41.806Z,0.19
2023-01-28T17:36:15.707Z,0.15
2023-01-28T17:38:46.164Z,0.16
2023-01-28T17:41:18.706Z,0.16
2023-01-28T17:43:54.925Z,0.15
2023-01-28T17:46:25.528Z,0.15
2023-01-28T17:48:56.107Z,0.15
2023-01-28T17:51:26.584Z,0.15
2023-01-28T17:53:58.963Z,0.16
2023-01-28T17:56:31.931Z,0.15
2023-01-28T17:59:04.615Z,0.15
2023-01-28T18:01:40.609Z,0.13
2023-01-28T18:04:12.184Z,0.17
2023-01-28T18:06:45.724Z,0.17
2023-01-28T18:09:18.692Z,0.17
2023-01-28T18:11:54.068Z,0.13
2023-01-28T18:14:28.526Z,0.13
2023-01-28T18:17:00.074Z,0.11
2023-01-28T18:19:36.152Z,0.10
2023-01-28T18:22:08.320Z,0.10
2023-01-28T18:24:38.809Z,0.08
2023-01-28T18:27:09.800Z,0.08
2023-01-28T18:29:41.017Z,0.05
2023-01-28T18:32:11.748Z,0.04
2023-01-28T18:34:43.002Z,0.02
2023-01-28T18:37:13.636Z,0.00
2023-01-28T18:39:44.728Z,-0.01
2023-01-28T18:42:15.877Z,-0.01
2023-01-28T18:44:51.491Z,0.01
2023-01-28T18:47:21.781Z,0.02
2023-01-28T18:49:53.251Z,0.02
2023-01-28T18:52:26.927Z,0.02
2023-01-28T18:54:57.802Z,0.04
2023-01-28T18:57:28.547Z,0.03
2023-01-28T18:59:58.470Z,0.06
2023-01-28T19:02:30.903Z,0.02
2023-01-28T19:05:01.086Z,0.00
2023-01-28T19:07:31.918Z,-0.01
2023-01-28T19:10:01.746Z,0.01
2023-01-28T19:12:32.776Z,0.05
2023-01-28T19:15:02.620Z,0.03
2023-01-28T19:17:35.260Z,0.02
2023-01-28T19:20:06.683Z,0.05
2023-01-28T19:22:36.875Z,0.04
2023-01-28T19:25:07.931Z,0.00
2023-01-28T19:27:38.018Z,-0.01
2023-01-28T19:30:08.860Z,-0.04
2023-01-28T19:32:39.245Z,-0.05
2023-01-28T19:35:08.937Z,-0.06
2023-01-28T19:37:39.177Z,-0.07
2023-01-28T19:40:10.209Z,-0.07
2023-01-28T19:42:39.970Z,-0.07
2023-01-28T19:45:30.668Z,-0.07
2023-01-28T19:48:00.531Z,-0.06
2023-01-28T19:50:30.097Z,-0.07
2023-01-28T19:53:00.254Z,-0.07
2023-01-28T19:55:30.248Z,-0.06
2023-01-28T19:58:00.091Z,-0.07
2023-01-28T20:00:29.996Z,-0.07
2023-01-28T20:02:59.743Z,-0.07
2023-01-28T20:05:30.325Z,-0.07
2023-01-28T20:08:00.224Z,-0.07
2023-01-28T20:10:29.536Z,-0.07
2023-01-28T20:12:59.253Z,-0.05
2023-01-28T20:15:29.060Z,-0.04
2023-01-28T20:17:58.655Z,-0.06
2023-01-28T20:20:28.695Z,-0.06
2023-01-28T20:22:58.123Z,-0.05
2023-01-28T20:25:27.927Z,-0.04
2023-01-28T20:27:58.157Z,-0.02
2023-01-28T20:30:27.925Z,-0.02
2023-01-28T20:32:57.892Z,-0.02
2023-01-28T20:35:27.926Z,-0.00
2023-01-28T20:37:57.925Z,-0.00
2023-01-28T20:40:27.397Z,-0.01
2023-01-28T20:42:56.829Z,-0.01
2023-01-28T20:45:27.551Z,0.00
2023-01-28T20:47:57.312Z,0.00
2023-01-28T20:50:27.396Z,0.02
2023-01-28T20:52:57.004Z,0.01
2023-01-28T20:55:26.401Z,0.02
2023-01-28T20:57:56.158Z,0.04
2023-01-28T21:00:26.175Z,0.07
2023-01-28T21:02:56.402Z,0.10
2023-01-28T21:05:25.716Z,0.09
2023-01-28T21:07:55.091Z,0.08
2023-01-28T21:10:24.578Z,0.07
2023-01-28T21:12:54.819Z,0.07
2023-01-28T21:15:24.973Z,0.09
2023-01-28T21:17:54.946Z,0.10
2023-01-28T21:20:24.170Z,0.09
2023-01-28T21:22:54.282Z,0.07
2023-01-28T21:25:23.741Z,0.07
2023-01-28T21:27:54.492Z,0.08
2023-01-28T21:30:24.490Z,0.08
2023-01-28T21:32:54.166Z,0.08
2023-01-28T21:35:24.312Z,0.07
2023-01-28T21:37:53.769Z,0.08
2023-01-28T21:40:25.176Z,0.07
2023-01-28T21:42:55.615Z,0.09
2023-01-28T21:45:24.979Z,0.13
2023-01-28T21:47:54.913Z,0.15
2023-01-28T21:50:24.664Z,0.17
2023-01-28T21:52:53.941Z,0.15
2023-01-28T21:55:23.224Z,0.15
2023-01-28T21:58:13.290Z,0.13
2023-01-28T22:00:42.739Z,0.12
2023-01-28T22:03:12.418Z,0.14
2023-01-28T22:05:41.568Z,0.15
2023-01-28T22:08:11.295Z,0.17
2023-01-28T22:10:40.617Z,0.16
2023-01-28T22:13:10.567Z,0.16
2023-01-28T22:15:41.276Z,0.15
2023-01-28T22:18:10.516Z,0.15
2023-01-28T22:20:39.739Z,0.17
2023-01-28T22:23:08.890Z,0.18
2023-01-28T22:25:41.335Z,0.19
2023-01-28T22:28:10.512Z,0.20
2023-01-28T22:30:39.720Z,0.19
2023-01-28T22:33:10.013Z,0.19
2023-01-28T22:35:39.875Z,0.18
2023-01-28T22:38:09.439Z,0.18
2023-01-28T22:40:39.003Z,0.20
2023-01-28T22:43:09.355Z,0.18
2023-01-28T22:45:38.555Z,0.17
2023-01-28T22:48:07.779Z,0.16
2023-01-28T22:50:37.363Z,0.15
2023-01-28T22:53:06.662Z,0.15
2023-01-28T22:55:35.946Z,0.13
2023-01-28T22:58:09.769Z,0.16
2023-01-28T23:00:39.593Z,0.14
2023-01-28T23:03:10.304Z,0.15
2023-01-28T23:05:40.282Z,0.15
2023-01-28T23:08:12.950Z,0.13
2023-01-28T23:10:47.659Z,0.11
2023-01-28T23:13:21.340Z,0.07
2023-01-28T23:16:10.215Z,0.06
2023-01-28T23:18:39.657Z,0.04
2023-01-28T23:21:39.255Z,0.05
2023-01-28T23:24:24.871Z,0.03
2023-01-28T23:26:58.403Z,-0.00
2023-01-28T23:29:28.577Z,-0.01
2023-01-28T23:32:04.327Z,0.01
2023-01-28T23:34:38.519Z,0.03
2023-01-28T23:37:11.253Z,0.04
2023-01-28T23:39:41.071Z,0.06
2023-01-28T23:42:15.247Z,0.07
2023-01-28T23:44:49.091Z,0.08
2023-01-28T23:47:18.680Z,0.09
2023-01-28T23:49:48.675Z,0.09
2023-01-28T23:52:18.569Z,0.08
2023-01-28T23:54:48.026Z,0.09
2023-01-28T23:57:17.320Z,0.07
2023-01-28T23:59:46.454Z,0.08
